Time;durP1;ratioP1;P1;durP2;ratioP2;P2;SDS_P1;SDS_P2;PMS_P1;PMS_P2;Temp;Humidity;BMP_temperature;BMP_pressure;BME280_temperature;BME280_humidity;BME280_pressure;Samples;Min_cycle;Max_cycle;Signal;HPM_P1;HPM_P2
2023/12/10 00:00:18;;;;;;;51.22;7.85;;;6.20;99.90;;;;;;5038393;28;20021;-83
2023/12/10 00:02:43;;;;;;;53.90;8.65;;;6.20;99.90;;;;;;5036092;28;20028;-83
2023/12/10 00:05:09;;;;;;;41.55;7.35;;;6.20;99.90;;;;;;5018359;28;20044;-83
2023/12/10 00:07:35;;;;;;;36.72;6.28;;;6.20;99.90;;;;;;5021853;28;20028;-83
2023/12/10 00:10:00;;;;;;;49.78;8.35;;;6.20;99.90;;;;;;5032914;28;20095;-83
2023/12/10 00:12:26;;;;;;;38.13;6.22;;;6.20;99.90;;;;;;5021452;28;20021;-83
2023/12/10 00:14:54;;;;;;;52.63;8.52;;;6.10;99.90;;;;;;5016289;28;20805;-83
2023/12/10 00:17:22;;;;;;;57.22;7.32;;;6.10;99.90;;;;;;5023046;28;20045;-83
2023/12/10 00:19:47;;;;;;;49.40;8.50;;;6.10;99.90;;;;;;5018817;28;20035;-84
2023/12/10 00:22:13;;;;;;;64.38;8.07;;;6.20;99.90;;;;;;5041108;28;20532;-83
2023/12/10 00:24:40;;;;;;;45.20;7.70;;;6.20;99.90;;;;;;5037151;28;20029;-83
2023/12/10 00:27:05;;;;;;;54.47;7.25;;;6.20;99.90;;;;;;5021507;28;20116;-84
2023/12/10 00:29:31;;;;;;;54.28;8.98;;;6.20;99.90;;;;;;5035759;28;20140;-83
2023/12/10 00:31:57;;;;;;;45.42;7.10;;;6.20;99.90;;;;;;5040488;28;20473;-84
2023/12/10 00:34:22;;;;;;;53.92;7.90;;;6.20;99.90;;;;;;5019787;28;20397;-84
2023/12/10 00:36:48;;;;;;;64.63;11.07;;;6.20;99.90;;;;;;5017784;28;20086;-83
2023/12/10 00:39:14;;;;;;;50.33;7.60;;;6.30;99.90;;;;;;5037571;28;20485;-83
2023/12/10 00:41:39;;;;;;;58.33;8.70;;;6.30;99.90;;;;;;5020502;28;20032;-84
2023/12/10 00:47:30;;;;;;;53.65;7.90;;;6.30;99.90;;;;;;5033695;28;20040;-84
2023/12/10 00:49:56;;;;;;;56.03;7.70;;;6.30;99.90;;;;;;5035761;28;20032;-83
2023/12/10 00:52:22;;;;;;;48.95;8.05;;;6.30;99.90;;;;;;5038841;28;20061;-84
2023/12/10 00:54:47;;;;;;;51.30;9.63;;;6.30;99.90;;;;;;5037780;28;20051;-84
2023/12/10 00:57:13;;;;;;;63.05;8.82;;;6.40;99.90;;;;;;5023048;28;20024;-84
2023/12/10 00:59:39;;;;;;;51.50;7.93;;;6.40;99.90;;;;;;5033750;28;20477;-85
2023/12/10 01:02:05;;;;;;;60.13;8.65;;;6.40;99.90;;;;;;5019367;28;20037;-83
2023/12/10 01:04:31;;;;;;;49.92;6.95;;;6.30;99.90;;;;;;5037736;28;20033;-84
2023/12/10 01:06:56;;;;;;;49.58;9.35;;;6.40;99.90;;;;;;5020043;28;20534;-83
2023/12/10 01:09:22;;;;;;;50.85;8.13;;;6.40;99.90;;;;;;5038647;28;20041;-83
2023/12/10 01:11:48;;;;;;;57.88;8.43;;;6.30;99.90;;;;;;5039694;28;20096;-84
2023/12/10 01:14:13;;;;;;;57.13;9.10;;;6.30;99.90;;;;;;5015210;28;20025;-84
2023/12/10 01:16:40;;;;;;;57.53;8.25;;;6.30;99.90;;;;;;5020039;28;20626;-83
2023/12/10 01:19:06;;;;;;;74.72;9.80;;;6.30;99.90;;;;;;5021479;28;20111;-84
2023/12/10 01:21:31;;;;;;;62.15;7.82;;;6.30;99.90;;;;;;5032592;28;20025;-83
2023/12/10 01:23:59;;;;;;;54.88;7.60;;;6.40;99.90;;;;;;5022479;28;20781;-83
2023/12/10 01:26:25;;;;;;;51.13;8.20;;;6.30;99.90;;;;;;5037269;28;20107;-83
2023/12/10 01:28:51;;;;;;;61.13;7.65;;;6.40;99.90;;;;;;5017720;28;20137;-83
2023/12/10 01:31:17;;;;;;;59.25;7.55;;;6.40;99.90;;;;;;5038453;28;20033;-83
2023/12/10 01:33:43;;;;;;;50.80;8.48;;;6.40;99.90;;;;;;5045063;28;20029;-83
2023/12/10 01:36:21;;;;;;;59.92;8.18;;;6.40;99.90;;;;;;5014113;28;20033;-83
2023/12/10 01:38:47;;;;;;;61.80;8.98;;;6.40;99.90;;;;;;5035824;28;20024;-83
2023/12/10 01:41:12;;;;;;;43.13;7.18;;;6.40;99.90;;;;;;5021756;28;20148;-83
2023/12/10 01:43:38;;;;;;;54.72;8.20;;;6.30;99.90;;;;;;5033383;28;20034;-83
2023/12/10 01:46:04;;;;;;;54.00;8.75;;;6.40;99.90;;;;;;5030931;28;20067;-83
2023/12/10 01:48:30;;;;;;;49.03;7.97;;;6.30;99.90;;;;;;5022270;28;20029;-83
2023/12/10 01:50:56;;;;;;;46.30;8.02;;;6.30;99.90;;;;;;5016775;28;20149;-83
2023/12/10 01:53:22;;;;;;;59.80;9.93;;;6.30;99.90;;;;;;5023437;28;20109;-83
2023/12/10 01:55:49;;;;;;;63.35;8.68;;;6.30;99.90;;;;;;5037557;28;20048;-83
2023/12/10 01:58:14;;;;;;;59.45;7.72;;;6.30;99.90;;;;;;5037512;28;20030;-84
2023/12/10 02:00:40;;;;;;;52.65;8.55;;;6.30;99.90;;;;;;5018237;28;20473;-84
2023/12/10 02:03:06;;;;;;;55.42;9.50;;;6.30;99.90;;;;;;5023432;28;20032;-83
2023/12/10 02:05:32;;;;;;;47.55;7.95;;;6.40;99.90;;;;;;5036975;28;20226;-84
2023/12/10 02:07:58;;;;;;;71.07;8.13;;;6.40;99.90;;;;;;5021431;28;20068;-84
2023/12/10 02:10:24;;;;;;;55.92;8.30;;;6.40;99.90;;;;;;5038946;28;20060;-83
2023/12/10 02:12:53;;;;;;;52.80;8.85;;;6.30;99.90;;;;;;5021272;28;20024;-84
2023/12/10 02:15:20;;;;;;;42.53;9.48;;;6.30;99.90;;;;;;5038078;28;20120;-83
2023/12/10 02:17:47;;;;;;;57.78;7.32;;;6.20;99.90;;;;;;5023352;28;20388;-84
2023/12/10 02:20:14;;;;;;;59.75;7.45;;;6.20;99.90;;;;;;5025221;28;20029;-83
2023/12/10 02:22:57;;;;;;;60.03;9.00;;;6.20;99.90;;;;;;5025054;28;20029;-84
2023/12/10 02:25:33;;;;;;;60.38;8.98;;;6.20;99.90;;;;;;5043135;28;20358;-84
2023/12/10 02:28:00;;;;;;;64.78;8.85;;;6.10;99.90;;;;;;5026997;28;20836;-84
2023/12/10 02:30:26;;;;;;;55.00;9.10;;;6.10;99.90;;;;;;5038479;28;20067;-84
2023/12/10 02:32:52;;;;;;;54.67;7.55;;;6.10;99.90;;;;;;5020447;28;20017;-84
2023/12/10 02:35:18;;;;;;;61.92;8.57;;;6.10;99.90;;;;;;5039550;28;20044;-84
2023/12/10 02:37:43;;;;;;;56.78;8.57;;;6.10;99.90;;;;;;5023619;28;20025;-84
2023/12/10 02:40:10;;;;;;;55.88;8.57;;;6.10;99.90;;;;;;5023967;28;20510;-84
2023/12/10 02:42:36;;;;;;;56.85;7.32;;;6.10;99.90;;;;;;5025014;28;20523;-84
2023/12/10 02:45:03;;;;;;;63.55;8.95;;;6.10;99.90;;;;;;5040450;28;20064;-83
2023/12/10 02:47:28;;;;;;;59.15;8.80;;;6.20;99.90;;;;;;5039001;28;20105;-84
2023/12/10 02:49:54;;;;;;;58.05;6.88;;;6.10;99.90;;;;;;5043144;28;20590;-84
2023/12/10 02:52:22;;;;;;;55.88;8.50;;;6.10;99.90;;;;;;5022072;28;20116;-84
2023/12/10 02:54:48;;;;;;;60.20;8.38;;;6.10;99.90;;;;;;5020647;28;20045;-84
2023/12/10 02:57:14;;;;;;;46.10;7.32;;;6.00;99.90;;;;;;5024086;28;20025;-83
2023/12/10 02:59:40;;;;;;;22.00;4.05;;;6.00;99.90;;;;;;5021994;28;20032;-82
2023/12/10 03:02:06;;;;;;;37.55;5.68;;;5.70;99.90;;;;;;5018496;28;20029;-83
2023/12/10 03:04:31;;;;;;;24.98;4.38;;;5.50;99.90;;;;;;5016200;28;20043;-83
2023/12/10 03:06:57;;;;;;;34.05;5.57;;;5.30;99.90;;;;;;5022443;28;20048;-83
2023/12/10 03:09:23;;;;;;;35.55;4.88;;;5.20;99.90;;;;;;5018981;28;20038;-83
2023/12/10 03:11:48;;;;;;;38.30;6.00;;;5.20;99.90;;;;;;5038829;28;20393;-83
2023/12/10 03:14:14;;;;;;;38.28;5.82;;;5.20;99.90;;;;;;5022869;28;20021;-83
2023/12/10 03:16:40;;;;;;;36.78;5.65;;;5.10;99.90;;;;;;5037669;28;20038;-83
2023/12/10 03:19:06;;;;;;;49.75;6.22;;;5.10;99.90;;;;;;5022819;28;20037;-83
2023/12/10 03:21:31;;;;;;;29.30;4.28;;;5.00;99.90;;;;;;5036514;28;20091;-83
2023/12/10 03:23:57;;;;;;;31.20;4.18;;;5.00;99.90;;;;;;5024549;28;20063;-83
2023/12/10 03:26:23;;;;;;;20.08;4.30;;;4.90;99.90;;;;;;5021640;28;20091;-83
2023/12/10 03:28:48;;;;;;;23.30;5.95;;;4.80;99.90;;;;;;5019137;28;20030;-83
2023/12/10 03:31:14;;;;;;;33.22;5.18;;;4.80;99.90;;;;;;5023748;28;20123;-83
2023/12/10 03:33:40;;;;;;;25.38;4.18;;;4.80;99.90;;;;;;5020226;28;20028;-83
2023/12/10 03:36:06;;;;;;;24.23;4.22;;;4.70;99.90;;;;;;5042245;28;20115;-83
2023/12/10 03:38:31;;;;;;;28.05;5.35;;;4.70;99.90;;;;;;5020505;28;20048;-83
2023/12/10 03:40:57;;;;;;;40.63;4.97;;;4.70;99.90;;;;;;5035796;28;20037;-83
2023/12/10 03:43:23;;;;;;;45.15;5.40;;;4.70;99.90;;;;;;5021771;28;20428;-83
2023/12/10 03:45:49;;;;;;;32.03;5.50;;;4.70;99.90;;;;;;5021630;28;20548;-83
2023/12/10 03:48:14;;;;;;;32.83;5.15;;;4.80;99.90;;;;;;5038496;28;20029;-83
2023/12/10 03:50:41;;;;;;;43.33;6.18;;;4.90;99.90;;;;;;5023910;28;20104;-83
2023/12/10 03:53:07;;;;;;;32.30;4.78;;;4.90;99.90;;;;;;5021853;28;20048;-83
2023/12/10 03:55:32;;;;;;;45.63;5.82;;;4.90;99.90;;;;;;5035942;28;20030;-83
2023/12/10 03:57:58;;;;;;;60.38;7.07;;;4.90;99.90;;;;;;5024069;28;20060;-83
2023/12/10 04:00:24;;;;;;;55.00;8.95;;;5.00;99.90;;;;;;5019020;28;20365;-83
2023/12/10 04:02:50;;;;;;;43.65;9.00;;;5.00;99.90;;;;;;5033405;28;20036;-83
2023/12/10 04:05:15;;;;;;;33.20;5.30;;;4.90;99.90;;;;;;5039360;28;20032;-82
2023/12/10 04:07:41;;;;;;;48.58;5.82;;;4.90;99.90;;;;;;5018388;28;20033;-82
2023/12/10 04:10:08;;;;;;;38.05;5.80;;;4.80;99.90;;;;;;5036677;28;20033;-82
2023/12/10 04:12:33;;;;;;;24.13;4.35;;;4.70;99.90;;;;;;5035823;28;20021;-82
2023/12/10 04:14:59;;;;;;;27.52;4.38;;;4.60;99.90;;;;;;5018619;28;20032;-82
2023/12/10 04:17:25;;;;;;;29.80;5.25;;;4.60;99.90;;;;;;5018097;28;20025;-82
2023/12/10 04:19:51;;;;;;;50.08;5.45;;;4.60;99.90;;;;;;5020667;28;20032;-82
2023/12/10 04:22:16;;;;;;;40.95;7.13;;;4.60;99.90;;;;;;5020712;28;20095;-82
2023/12/10 04:24:42;;;;;;;45.50;7.03;;;4.60;99.90;;;;;;5023054;28;20100;-82
2023/12/10 04:27:08;;;;;;;49.47;8.07;;;4.70;99.90;;;;;;5018187;28;20030;-82
2023/12/10 04:29:34;;;;;;;25.88;5.03;;;4.80;99.90;;;;;;5018169;28;20065;-81
2023/12/10 04:32:00;;;;;;;51.35;6.15;;;4.80;99.90;;;;;;5021371;28;20068;-82
2023/12/10 04:34:25;;;;;;;40.63;6.45;;;4.80;99.90;;;;;;5031184;28;20036;-81
2023/12/10 04:36:51;;;;;;;45.92;5.85;;;4.90;99.90;;;;;;5024142;28;20033;-82
2023/12/10 04:39:18;;;;;;;37.58;4.85;;;4.90;99.90;;;;;;5021982;28;20025;-81
2023/12/10 04:41:43;;;;;;;47.45;4.82;;;4.90;99.90;;;;;;5015445;28;20446;-81
2023/12/10 04:44:09;;;;;;;47.38;7.60;;;4.80;99.90;;;;;;5024152;28;20064;-82
2023/12/10 04:46:35;;;;;;;44.45;5.88;;;4.80;99.90;;;;;;5034783;28;20100;-81
2023/12/10 04:49:00;;;;;;;42.10;5.70;;;4.80;99.90;;;;;;5026431;28;20029;-82
2023/12/10 04:51:28;;;;;;;38.15;5.80;;;4.80;99.90;;;;;;5021508;28;20026;-82
2023/12/10 04:53:54;;;;;;;55.45;6.63;;;4.80;99.90;;;;;;5016177;28;20120;-82
2023/12/10 04:56:19;;;;;;;31.08;5.22;;;4.80;99.90;;;;;;5035226;28;20780;-82
2023/12/10 04:58:45;;;;;;;44.53;6.20;;;4.70;99.90;;;;;;5039856;28;20109;-82
2023/12/10 05:01:11;;;;;;;49.78;6.63;;;4.70;99.90;;;;;;5019968;28;20095;-82
2023/12/10 05:03:36;;;;;;;47.85;7.45;;;4.70;99.90;;;;;;5017424;28;20751;-82
2023/12/10 05:06:02;;;;;;;62.67;7.45;;;4.70;99.90;;;;;;5022299;28;20040;-82
2023/12/10 05:08:28;;;;;;;75.72;9.43;;;4.70;99.90;;;;;;5019851;28;20029;-81
2023/12/10 05:10:54;;;;;;;49.67;9.18;;;4.60;99.90;;;;;;5026877;28;20025;-82
2023/12/10 05:13:19;;;;;;;52.15;6.55;;;4.70;99.90;;;;;;5021789;28;20033;-82
2023/12/10 05:15:45;;;;;;;59.13;7.68;;;4.70;99.90;;;;;;5015689;28;20515;-82
2023/12/10 05:18:11;;;;;;;67.70;11.15;;;4.60;99.90;;;;;;5023879;28;20044;-82
2023/12/10 05:20:36;;;;;;;49.47;7.93;;;4.60;99.90;;;;;;5015494;28;20112;-82
2023/12/10 05:23:02;;;;;;;55.58;6.82;;;4.60;99.90;;;;;;5034836;28;20048;-82
2023/12/10 05:25:28;;;;;;;63.55;8.30;;;4.60;99.90;;;;;;5035404;28;20345;-82
2023/12/10 05:27:55;;;;;;;50.40;7.97;;;4.60;99.90;;;;;;5021038;28;20040;-82
2023/12/10 05:30:21;;;;;;;58.55;7.10;;;4.60;99.90;;;;;;5019534;28;20029;-82
2023/12/10 05:32:47;;;;;;;66.40;7.65;;;4.60;99.90;;;;;;5039883;28;20795;-81
2023/12/10 05:35:12;;;;;;;58.65;7.80;;;4.70;99.90;;;;;;5020717;28;20025;-82
2023/12/10 05:37:38;;;;;;;51.03;8.15;;;4.60;99.90;;;;;;5035947;28;20025;-82
2023/12/10 05:40:04;;;;;;;58.45;7.80;;;4.60;99.90;;;;;;5023646;28;20038;-81
2023/12/10 05:42:30;;;;;;;70.10;7.03;;;4.60;99.90;;;;;;5036487;28;20118;-81
2023/12/10 05:44:56;;;;;;;55.45;7.63;;;4.60;99.90;;;;;;5015845;28;20120;-82
2023/12/10 05:47:22;;;;;;;51.75;8.07;;;4.70;99.90;;;;;;5020592;28;20036;-82
2023/12/10 05:49:48;;;;;;;69.38;7.68;;;4.80;99.90;;;;;;5017933;28;20802;-82
2023/12/10 05:52:13;;;;;;;51.13;7.10;;;4.80;99.90;;;;;;5021875;28;20028;-82
2023/12/10 05:54:39;;;;;;;39.50;6.43;;;4.80;99.90;;;;;;5010983;28;20109;-82
2023/12/10 05:57:05;;;;;;;56.67;7.55;;;4.90;99.90;;;;;;5040917;28;20037;-82
2023/12/10 05:59:30;;;;;;;58.55;7.72;;;4.80;99.90;;;;;;5032021;28;20433;-82
2023/12/10 06:01:57;;;;;;;61.20;7.18;;;4.70;99.90;;;;;;5018358;28;20029;-82
2023/12/10 06:04:22;;;;;;;54.50;6.78;;;4.70;99.90;;;;;;5032835;28;20056;-81
2023/12/10 06:06:48;;;;;;;47.33;6.78;;;4.80;99.90;;;;;;5038578;28;20037;-82
2023/12/10 06:09:14;;;;;;;46.38;8.75;;;4.60;99.90;;;;;;5035859;28;20032;-82
2023/12/10 06:11:40;;;;;;;55.83;7.03;;;4.70;99.90;;;;;;5029456;28;20105;-82
2023/12/10 06:14:06;;;;;;;60.47;7.82;;;4.70;99.90;;;;;;5037940;28;20504;-82
2023/12/10 06:16:32;;;;;;;41.97;5.80;;;4.60;99.90;;;;;;5035273;28;20022;-82
2023/12/10 06:18:58;;;;;;;53.20;8.95;;;4.70;99.90;;;;;;5023179;28;20159;-82
2023/12/10 06:21:23;;;;;;;59.75;6.47;;;4.80;99.90;;;;;;5037840;28;20025;-82
2023/12/10 06:23:49;;;;;;;46.25;7.78;;;4.80;99.90;;;;;;5013963;28;20026;-82
2023/12/10 06:26:15;;;;;;;48.85;7.68;;;4.80;99.90;;;;;;5024146;28;20048;-82
2023/12/10 06:28:40;;;;;;;49.00;6.72;;;4.80;99.90;;;;;;5033962;28;20112;-82
2023/12/10 06:31:06;;;;;;;45.97;6.47;;;4.70;99.90;;;;;;5018342;28;20033;-82
2023/12/10 06:33:32;;;;;;;39.70;7.25;;;4.70;99.90;;;;;;5018376;28;20704;-82
2023/12/10 06:35:58;;;;;;;60.10;7.43;;;4.70;99.90;;;;;;5017090;28;20715;-82
2023/12/10 06:38:23;;;;;;;51.22;7.25;;;4.70;99.90;;;;;;5033085;28;20029;-82
2023/12/10 06:40:49;;;;;;;31.85;5.75;;;4.70;99.90;;;;;;5034068;28;20067;-82
2023/12/10 06:43:15;;;;;;;52.92;6.63;;;4.70;99.90;;;;;;5037169;28;20529;-82
2023/12/10 06:45:40;;;;;;;61.30;7.15;;;4.80;99.90;;;;;;5034303;28;20036;-81
2023/12/10 06:48:06;;;;;;;50.17;7.05;;;4.80;99.90;;;;;;5020559;28;20787;-82
2023/12/10 06:50:32;;;;;;;55.72;8.32;;;4.80;99.90;;;;;;5019858;28;20703;-82
2023/12/10 06:52:58;;;;;;;57.60;6.50;;;4.80;99.90;;;;;;5031915;28;20036;-82
2023/12/10 06:55:24;;;;;;;44.05;6.20;;;4.80;99.90;;;;;;5023218;28;20480;-82
2023/12/10 06:57:49;;;;;;;42.53;5.93;;;4.90;99.90;;;;;;5036333;28;20018;-82
2023/12/10 07:00:17;;;;;;;62.22;7.05;;;4.90;99.90;;;;;;5043985;28;20079;-82
2023/12/10 07:02:43;;;;;;;58.55;8.57;;;4.90;99.90;;;;;;5018402;28;20485;-84
2023/12/10 07:05:09;;;;;;;45.55;7.63;;;4.80;99.90;;;;;;5021893;28;20033;-82
2023/12/10 07:07:35;;;;;;;40.28;8.63;;;4.80;99.90;;;;;;5010606;28;20083;-82
2023/12/10 07:10:01;;;;;;;49.17;6.28;;;4.90;99.90;;;;;;5024663;28;20033;-83
2023/12/10 07:12:27;;;;;;;40.08;6.13;;;4.80;99.90;;;;;;5030679;28;20493;-82
2023/12/10 07:14:53;;;;;;;54.72;7.15;;;4.90;99.90;;;;;;5032814;28;20036;-83
2023/12/10 07:17:18;;;;;;;42.75;6.97;;;4.90;99.90;;;;;;5015118;28;20036;-83
2023/12/10 07:19:44;;;;;;;60.78;6.95;;;4.80;99.90;;;;;;5032026;28;20711;-82
2023/12/10 07:22:10;;;;;;;47.88;8.85;;;4.80;99.90;;;;;;5036980;28;20034;-83
2023/12/10 07:24:37;;;;;;;55.00;6.22;;;4.80;99.90;;;;;;5036133;28;20396;-82
2023/12/10 07:27:03;;;;;;;46.92;7.38;;;4.80;99.90;;;;;;5036918;28;20044;-83
2023/12/10 07:29:29;;;;;;;52.33;6.93;;;4.90;99.90;;;;;;5032122;28;20028;-83
2023/12/10 07:31:55;;;;;;;47.88;6.70;;;4.90;99.90;;;;;;5021886;28;20485;-83
2023/12/10 07:34:21;;;;;;;58.55;8.43;;;4.90;99.90;;;;;;5032780;28;20047;-83
2023/12/10 07:36:46;;;;;;;37.35;6.80;;;4.90;99.90;;;;;;5034068;28;20643;-83
2023/12/10 07:39:13;;;;;;;52.88;6.38;;;4.90;99.90;;;;;;5020477;28;20087;-82
2023/12/10 07:41:39;;;;;;;42.13;9.73;;;4.90;99.90;;;;;;5032443;28;21102;-83
2023/12/10 07:44:05;;;;;;;44.00;7.45;;;5.00;99.90;;;;;;5015928;28;20071;-83
2023/12/10 07:46:30;;;;;;;41.42;6.15;;;5.00;99.90;;;;;;5031610;28;20044;-82
2023/12/10 07:48:56;;;;;;;51.38;5.93;;;5.00;99.90;;;;;;5037701;28;20036;-83
2023/12/10 07:51:23;;;;;;;47.03;5.95;;;5.00;99.90;;;;;;5016669;28;20040;-82
2023/12/10 07:53:49;;;;;;;42.70;5.72;;;5.00;99.90;;;;;;5023815;28;20033;-83
2023/12/10 07:56:15;;;;;;;52.92;7.15;;;5.00;99.90;;;;;;5018974;28;20087;-83
2023/12/10 07:58:40;;;;;;;44.72;6.45;;;5.10;99.90;;;;;;5013018;28;20568;-83
2023/12/10 08:01:09;;;;;;;40.85;6.28;;;5.10;99.90;;;;;;5012786;28;20079;-83
2023/12/10 08:03:36;;;;;;;44.00;7.05;;;5.10;99.90;;;;;;5008549;28;20386;-83
2023/12/10 08:06:02;;;;;;;39.90;7.60;;;5.10;99.90;;;;;;5031418;28;20036;-83
2023/12/10 08:08:30;;;;;;;42.78;6.97;;;5.10;99.90;;;;;;5008083;28;20120;-84
2023/12/10 08:10:56;;;;;;;47.10;6.75;;;5.20;99.90;;;;;;5028263;28;20388;-83
2023/12/10 08:13:23;;;;;;;43.00;7.15;;;5.20;99.90;;;;;;5045760;28;20040;-83
2023/12/10 08:15:48;;;;;;;40.65;7.55;;;5.20;99.90;;;;;;5014541;28;20066;-83
2023/12/10 08:18:15;;;;;;;41.88;5.07;;;5.10;99.90;;;;;;5035076;28;20033;-83
2023/12/10 08:20:41;;;;;;;45.25;6.55;;;5.10;99.90;;;;;;5030125;28;20052;-83
2023/12/10 08:23:06;;;;;;;32.65;5.28;;;5.20;99.90;;;;;;5011308;28;20049;-83
2023/12/10 08:25:32;;;;;;;42.92;8.07;;;5.30;99.90;;;;;;5031676;28;20037;-83
2023/12/10 08:27:58;;;;;;;41.22;6.68;;;5.40;99.90;;;;;;5019604;28;20408;-83
2023/12/10 08:30:24;;;;;;;42.40;6.63;;;5.40;99.90;;;;;;5031115;28;20069;-83
2023/12/10 08:32:50;;;;;;;33.03;4.95;;;5.40;99.90;;;;;;5031832;28;20060;-83
2023/12/10 08:35:16;;;;;;;51.25;6.18;;;5.40;99.90;;;;;;5035200;28;20052;-83
2023/12/10 08:37:42;;;;;;;30.52;6.18;;;5.40;99.90;;;;;;5013674;28;20084;-83
2023/12/10 08:40:08;;;;;;;32.63;6.72;;;5.40;99.90;;;;;;5035190;28;20078;-84
2023/12/10 08:42:34;;;;;;;50.35;7.68;;;5.40;99.90;;;;;;5030410;28;20124;-83
2023/12/10 08:45:00;;;;;;;43.85;9.52;;;5.40;99.90;;;;;;5018413;28;20505;-83
2023/12/10 08:47:25;;;;;;;43.10;8.32;;;5.40;99.90;;;;;;5030891;28;20036;-83
2023/12/10 08:49:52;;;;;;;47.88;5.88;;;5.40;99.90;;;;;;5028394;28;20139;-83
2023/12/10 08:52:18;;;;;;;36.45;6.90;;;5.50;99.90;;;;;;5039192;28;20028;-83
2023/12/10 08:54:43;;;;;;;29.77;4.88;;;5.50;99.90;;;;;;5009574;28;20029;-84
2023/12/10 08:57:13;;;;;;;45.55;7.10;;;5.50;99.90;;;;;;5012069;28;20034;-83
2023/12/10 08:59:39;;;;;;;46.63;6.78;;;5.50;99.90;;;;;;5037249;28;20174;-82
2023/12/10 09:02:05;;;;;;;48.90;11.82;;;5.50;99.90;;;;;;5040773;28;20175;-83
2023/12/10 09:04:31;;;;;;;43.15;7.93;;;5.50;99.90;;;;;;5035037;28;20033;-83
2023/12/10 09:06:56;;;;;;;39.45;6.68;;;5.60;99.90;;;;;;5034334;28;20374;-84
2023/12/10 09:09:22;;;;;;;34.83;5.72;;;5.60;99.90;;;;;;5037681;28;20026;-83
2023/12/10 09:11:48;;;;;;;44.20;7.93;;;5.60;99.90;;;;;;5011870;28;20037;-83
2023/12/10 09:14:14;;;;;;;56.03;8.63;;;5.60;99.90;;;;;;5052446;28;20044;-84
2023/12/10 09:16:40;;;;;;;42.25;7.07;;;5.60;99.90;;;;;;5031314;28;20025;-83
2023/12/10 09:19:06;;;;;;;45.00;6.10;;;5.80;99.90;;;;;;5044145;28;20025;-83
2023/12/10 09:21:31;;;;;;;45.95;7.90;;;5.80;99.90;;;;;;5007597;28;20030;-83
2023/12/10 09:23:57;;;;;;;35.90;5.90;;;5.80;99.90;;;;;;5034710;28;20519;-83
2023/12/10 09:26:24;;;;;;;30.42;6.82;;;5.90;99.90;;;;;;5036073;28;20400;-83
2023/12/10 09:28:50;;;;;;;32.22;5.00;;;5.90;99.90;;;;;;5036762;28;20041;-84
2023/12/10 09:31:25;;;;;;;22.33;5.25;;;5.80;99.90;;;;;;5021825;28;20042;-84
2023/12/10 09:33:50;;;;;;;29.02;6.13;;;5.80;99.90;;;;;;5037097;28;20033;-83
2023/12/10 09:36:17;;;;;;;31.80;5.40;;;5.90;99.90;;;;;;5034948;28;20064;-83
2023/12/10 09:38:43;;;;;;;38.40;6.75;;;6.00;99.90;;;;;;5024190;28;20123;-84
2023/12/10 09:41:09;;;;;;;48.17;8.38;;;6.00;99.90;;;;;;5042075;28;20105;-83
2023/12/10 09:43:35;;;;;;;40.63;5.63;;;5.90;99.90;;;;;;5043241;28;20731;-83
2023/12/10 09:46:03;;;;;;;41.08;6.65;;;5.90;99.90;;;;;;5017249;28;20030;-84
2023/12/10 09:48:30;;;;;;;42.40;5.47;;;5.90;99.90;;;;;;5014491;28;20033;-83
2023/12/10 09:50:56;;;;;;;36.03;5.55;;;5.90;99.90;;;;;;5046416;28;20044;-84
2023/12/10 09:53:22;;;;;;;29.65;5.90;;;6.00;99.90;;;;;;5027447;28;20042;-82
2023/12/10 09:55:48;;;;;;;34.20;5.38;;;6.00;99.90;;;;;;5014496;28;20034;-83
2023/12/10 09:58:14;;;;;;;36.35;6.63;;;6.00;99.90;;;;;;5038443;28;20785;-84
2023/12/10 10:00:40;;;;;;;40.83;6.00;;;6.10;99.90;;;;;;5017605;28;20112;-83
2023/12/10 10:03:06;;;;;;;38.28;5.68;;;6.10;99.90;;;;;;5016866;28;20476;-83
2023/12/10 10:05:35;;;;;;;33.10;5.53;;;6.00;99.90;;;;;;5021842;28;20022;-84
2023/12/10 10:08:01;;;;;;;22.65;5.13;;;6.00;99.90;;;;;;5037565;28;20159;-83
2023/12/10 10:10:27;;;;;;;31.88;7.07;;;6.10;99.90;;;;;;5018530;28;20132;-84
2023/12/10 10:12:54;;;;;;;30.38;4.63;;;6.10;99.90;;;;;;5022349;28;20034;-83
2023/12/10 10:15:28;;;;;;;44.53;7.72;;;6.10;99.90;;;;;;5035298;28;20145;-83
2023/12/10 10:17:54;;;;;;;37.25;6.57;;;6.30;99.90;;;;;;5041025;28;20064;-84
2023/12/10 10:20:24;;;;;;;43.40;6.15;;;6.30;99.90;;;;;;5018451;28;20068;-84
2023/12/10 10:22:51;;;;;;;25.75;5.65;;;6.30;99.90;;;;;;5023249;28;20044;-84
2023/12/10 10:25:20;;;;;;;35.63;5.50;;;6.30;99.90;;;;;;5019761;28;20127;-84
2023/12/10 10:27:49;;;;;;;39.03;5.85;;;6.20;99.90;;;;;;5033967;28;20032;-83
2023/12/10 10:30:14;;;;;;;36.35;4.85;;;6.30;99.90;;;;;;5021760;28;20033;-84
2023/12/10 10:32:41;;;;;;;36.70;4.78;;;6.20;99.90;;;;;;5024026;28;20380;-84
2023/12/10 10:35:08;;;;;;;32.85;5.60;;;6.30;99.90;;;;;;5025831;28;20528;-84
2023/12/10 10:37:34;;;;;;;35.45;5.70;;;6.30;99.90;;;;;;5026929;28;20492;-83
2023/12/10 10:40:00;;;;;;;38.08;7.20;;;6.40;99.90;;;;;;5039042;28;20041;-84
2023/12/10 10:42:25;;;;;;;44.20;5.90;;;6.40;99.90;;;;;;5030808;28;20025;-84
2023/12/10 10:44:51;;;;;;;29.05;5.18;;;6.40;99.90;;;;;;5045542;28;20039;-84
2023/12/10 10:47:18;;;;;;;30.98;4.72;;;6.40;99.90;;;;;;5017037;28;20742;-84
2023/12/10 10:50:00;;;;;;;40.83;5.45;;;6.30;99.90;;;;;;5016106;28;20116;-84
2023/12/10 10:52:29;;;;;;;35.97;5.75;;;6.30;99.90;;;;;;5019323;28;20832;-84
2023/12/10 10:54:56;;;;;;;32.17;5.30;;;6.40;99.90;;;;;;5031636;28;20044;-84
2023/12/10 10:57:35;;;;;;;38.75;6.20;;;6.50;99.90;;;;;;5045376;28;20731;-83
2023/12/10 11:00:16;;;;;;;30.10;4.60;;;6.60;99.90;;;;;;5033796;28;20053;-84
2023/12/10 11:02:42;;;;;;;43.83;6.38;;;6.60;99.90;;;;;;5017045;28;20477;-84
2023/12/10 11:05:08;;;;;;;33.13;5.30;;;6.50;99.90;;;;;;5033385;28;20053;-84
2023/12/10 11:07:34;;;;;;;37.00;5.60;;;6.40;99.90;;;;;;5033976;28;20095;-84
2023/12/10 11:10:02;;;;;;;45.38;5.38;;;6.30;99.90;;;;;;5031644;28;20052;-84
2023/12/10 11:12:40;;;;;;;34.35;5.05;;;6.30;99.90;;;;;;5026742;28;20022;-84
2023/12/10 11:15:27;;;;;;;48.85;8.05;;;6.40;99.90;;;;;;5058513;28;20385;-84
2023/12/10 11:17:57;;;;;;;32.20;6.40;;;6.40;99.90;;;;;;5052785;28;20492;-83
2023/12/10 11:20:46;;;;;;;36.65;6.30;;;6.50;99.90;;;;;;5032227;28;20021;-84
2023/12/10 11:23:17;;;;;;;47.13;6.72;;;6.60;99.90;;;;;;5020754;28;20029;-84
2023/12/10 11:25:44;;;;;;;36.15;4.95;;;6.70;99.90;;;;;;5021022;28;20034;-84
2023/12/10 11:28:20;;;;;;;27.83;6.18;;;6.80;99.90;;;;;;5021623;28;20056;-84
2023/12/10 11:30:46;;;;;;;45.13;8.57;;;6.80;99.90;;;;;;5019558;28;20040;-84
2023/12/10 11:33:14;;;;;;;32.60;5.47;;;6.80;99.90;;;;;;5040503;28;20026;-84
2023/12/10 11:35:40;;;;;;;45.85;7.50;;;6.90;99.90;;;;;;5036959;28;20021;-84
2023/12/10 11:38:06;;;;;;;36.33;5.95;;;6.80;99.90;;;;;;5043363;28;20037;-84
2023/12/10 11:40:32;;;;;;;29.85;5.10;;;6.80;99.90;;;;;;5039297;28;20113;-84
2023/12/10 11:43:06;;;;;;;41.20;5.78;;;6.80;99.90;;;;;;5019908;28;20033;-84
2023/12/10 11:45:32;;;;;;;36.47;6.93;;;6.80;99.90;;;;;;5024855;28;20055;-84
2023/12/10 11:47:58;;;;;;;34.63;5.45;;;6.90;99.90;;;;;;5023515;28;20033;-84
2023/12/10 11:50:23;;;;;;;30.10;5.63;;;6.90;99.90;;;;;;5017925;28;20056;-84
2023/12/10 11:52:50;;;;;;;34.28;5.15;;;6.90;99.90;;;;;;5042092;28;20503;-84
2023/12/10 11:55:16;;;;;;;38.95;5.60;;;6.80;99.90;;;;;;5018439;28;20021;-85
2023/12/10 11:57:43;;;;;;;28.95;5.78;;;6.80;99.90;;;;;;5027403;28;20035;-85
2023/12/10 12:00:13;;;;;;;27.88;5.53;;;6.90;99.90;;;;;;5019719;28;20036;-86
2023/12/10 12:02:42;;;;;;;32.05;4.72;;;7.00;99.90;;;;;;5037214;28;20388;-85
2023/12/10 12:05:09;;;;;;;30.50;5.07;;;7.10;99.90;;;;;;5021384;28;20022;-85
2023/12/10 12:07:36;;;;;;;24.77;5.07;;;7.10;99.90;;;;;;5028018;28;20033;-85
2023/12/10 12:10:02;;;;;;;26.77;4.97;;;7.10;99.90;;;;;;5021755;28;20075;-82
2023/12/10 12:12:27;;;;;;;29.95;5.88;;;7.10;99.90;;;;;;5041830;28;20053;-83
2023/12/10 12:14:53;;;;;;;34.42;6.97;;;7.20;99.90;;;;;;5024272;28;20429;-83
2023/12/10 12:17:20;;;;;;;29.92;5.45;;;7.10;99.90;;;;;;5034705;28;20026;-83
2023/12/10 12:19:46;;;;;;;24.42;5.60;;;7.10;99.90;;;;;;5042999;28;20075;-83
2023/12/10 12:22:13;;;;;;;34.83;6.68;;;7.00;99.90;;;;;;5036391;28;20026;-83
2023/12/10 12:24:39;;;;;;;41.00;6.43;;;7.00;99.90;;;;;;5020279;28;20108;-84
2023/12/10 12:27:08;;;;;;;39.70;8.73;;;6.80;99.90;;;;;;5019841;28;20462;-83
2023/12/10 12:29:35;;;;;;;29.85;6.40;;;6.80;99.90;;;;;;5018903;28;20079;-83
2023/12/10 12:32:05;;;;;;;41.63;7.38;;;6.70;99.90;;;;;;5009339;28;20100;-83
2023/12/10 12:34:31;;;;;;;40.17;7.22;;;6.60;99.90;;;;;;5027755;28;20108;-83
2023/12/10 12:36:57;;;;;;;32.65;8.38;;;6.60;99.90;;;;;;5029391;28;20105;-83
2023/12/10 12:39:24;;;;;;;48.08;7.40;;;6.60;99.90;;;;;;5034366;28;20039;-83
2023/12/10 12:41:50;;;;;;;36.03;5.43;;;6.60;99.90;;;;;;5030522;28;20095;-83
2023/12/10 12:44:16;;;;;;;32.80;6.38;;;6.60;99.90;;;;;;5030856;28;20029;-83